Time;durP1;ratioP1;P1;durP2;ratioP2;P2;SDS_P1;SDS_P2;PMS_P1;PMS_P2;Temp;Humidity;BMP_temperature;BMP_pressure;BME280_temperature;BME280_humidity;BME280_pressure;Samples;Min_cycle;Max_cycle;Signal;HPM_P1;HPM_P2
2022/09/04 00:01:06;;;;;;;10.93;6.15;;;15.50;73.00;;;;;;5093586;28;20292;-69
2022/09/04 00:03:41;;;;;;;9.77;5.95;;;15.50;73.40;;;;;;5092006;28;20231;-68
2022/09/04 00:06:13;;;;;;;12.10;6.13;;;15.50;73.60;;;;;;5095872;28;20562;-70
2022/09/04 00:08:56;;;;;;;13.18;7.28;;;15.40;73.80;;;;;;5093310;28;20692;-68
2022/09/04 00:11:34;;;;;;;17.10;7.13;;;15.40;74.00;;;;;;5080565;28;20202;-68
2022/09/04 00:14:08;;;;;;;12.97;6.57;;;15.40;74.10;;;;;;5094843;28;20246;-69
2022/09/04 00:16:41;;;;;;;9.83;6.40;;;15.40;74.40;;;;;;5093591;28;20211;-69
2022/09/04 00:19:15;;;;;;;9.80;6.43;;;15.40;74.60;;;;;;5090636;28;20208;-68
2022/09/04 00:21:49;;;;;;;9.70;6.03;;;15.30;74.70;;;;;;5093903;28;20224;-68
2022/09/04 00:24:17;;;;;;;10.97;6.10;;;15.30;75.10;;;;;;5080385;28;20561;-68
2022/09/04 00:26:53;;;;;;;9.73;5.93;;;15.30;75.30;;;;;;5094760;28;20211;-68
2022/09/04 00:29:29;;;;;;;9.88;6.60;;;15.20;75.80;;;;;;5091319;28;21366;-68
2022/09/04 00:32:02;;;;;;;13.97;6.47;;;15.20;76.10;;;;;;5086704;28;20213;-68
2022/09/04 00:34:44;;;;;;;9.25;6.60;;;15.20;76.50;;;;;;5092745;28;20287;-68
2022/09/04 00:37:16;;;;;;;11.03;6.47;;;15.20;76.70;;;;;;5092228;28;20286;-69
2022/09/04 00:39:48;;;;;;;10.83;6.50;;;15.20;76.80;;;;;;5094157;28;20713;-68
2022/09/04 00:42:31;;;;;;;8.07;6.13;;;15.10;77.00;;;;;;5091821;28;20204;-68
2022/09/04 00:45:12;;;;;;;13.63;6.80;;;15.10;77.40;;;;;;5092783;28;20203;-68
2022/09/04 00:47:59;;;;;;;9.67;5.73;;;15.00;77.50;;;;;;5093043;28;20199;-69
2022/09/04 00:50:42;;;;;;;13.47;6.20;;;15.00;77.70;;;;;;5092174;28;20201;-69
2022/09/04 00:53:22;;;;;;;8.07;6.53;;;15.00;77.90;;;;;;5087523;28;20205;-69
2022/09/04 00:56:02;;;;;;;11.60;6.27;;;14.90;78.20;;;;;;5092628;28;20231;-69
2022/09/04 00:58:50;;;;;;;9.70;6.13;;;14.90;78.50;;;;;;5093004;28;20200;-69
2022/09/04 01:01:22;;;;;;;9.80;6.27;;;14.90;78.60;;;;;;5091165;28;20204;-69
2022/09/04 01:04:36;;;;;;;11.90;6.67;;;14.90;78.70;;;;;;5093867;28;20678;-69
2022/09/04 01:07:23;;;;;;;12.77;7.07;;;14.90;79.60;;;;;;5086107;28;20212;-69
2022/09/04 01:10:05;;;;;;;8.50;6.00;;;14.90;79.10;;;;;;5091221;28;20196;-69
2022/09/04 01:12:42;;;;;;;10.77;6.63;;;14.90;79.30;;;;;;5103909;28;20222;-69
2022/09/04 01:15:16;;;;;;;7.50;5.50;;;14.90;79.30;;;;;;5087004;28;20208;-69
2022/09/04 01:17:54;;;;;;;8.97;6.03;;;14.90;79.70;;;;;;5083718;28;20196;-69
2022/09/04 01:20:33;;;;;;;9.67;6.73;;;14.80;79.80;;;;;;5090468;28;20204;-67
2022/09/04 01:23:25;;;;;;;11.57;6.37;;;14.80;79.80;;;;;;5090152;28;20231;-69
2022/09/04 01:26:00;;;;;;;9.77;6.47;;;14.80;79.80;;;;;;5092306;28;20207;-70
2022/09/04 01:28:32;;;;;;;11.37;6.10;;;14.80;79.80;;;;;;5091794;28;20200;-69
2022/09/04 01:31:07;;;;;;;11.20;6.10;;;14.70;80.20;;;;;;5090993;28;20207;-70
2022/09/04 01:33:42;;;;;;;12.37;6.57;;;14.70;80.70;;;;;;5090791;28;20220;-69
2022/09/04 01:36:18;;;;;;;11.83;5.63;;;14.70;81.10;;;;;;5091435;28;20534;-69
2022/09/04 01:38:50;;;;;;;7.87;5.70;;;14.70;81.30;;;;;;5090000;28;20789;-70
2022/09/04 01:41:23;;;;;;;9.03;6.17;;;14.60;81.50;;;;;;5090313;28;20722;-69
2022/09/04 01:43:50;;;;;;;10.80;6.03;;;14.50;81.70;;;;;;5095236;28;20735;-70
2022/09/04 01:46:31;;;;;;;11.00;6.20;;;14.50;82.10;;;;;;5091293;28;20216;-69
2022/09/04 01:49:04;;;;;;;9.40;5.87;;;14.50;82.60;;;;;;5091394;28;20201;-69
2022/09/04 01:51:39;;;;;;;15.63;6.50;;;14.40;83.00;;;;;;5091322;28;20228;-69
2022/09/04 01:54:19;;;;;;;11.63;6.40;;;14.30;83.30;;;;;;5089709;28;20669;-69
2022/09/04 01:56:58;;;;;;;12.67;6.83;;;14.30;83.70;;;;;;5090303;28;20196;-69
2022/09/04 01:59:29;;;;;;;9.03;6.00;;;14.30;84.00;;;;;;5090881;28;20192;-69
2022/09/04 02:02:02;;;;;;;9.63;6.13;;;14.30;84.30;;;;;;5091085;28;20644;-68
2022/09/04 02:04:40;;;;;;;10.83;6.20;;;14.20;84.80;;;;;;5091414;28;20196;-68
2022/09/04 02:07:20;;;;;;;12.80;6.50;;;14.10;85.10;;;;;;5088544;28;20708;-68
2022/09/04 02:09:58;;;;;;;11.03;5.87;;;14.10;85.70;;;;;;5077895;28;20208;-69
2022/09/04 02:12:34;;;;;;;9.60;6.00;;;14.10;86.00;;;;;;5084012;28;20213;-69
2022/09/04 02:15:08;;;;;;;8.30;6.30;;;14.00;86.30;;;;;;5088976;28;20207;-70
2022/09/04 02:17:43;;;;;;;7.37;5.77;;;13.90;86.50;;;;;;5086865;28;20661;-69
2022/09/04 02:20:22;;;;;;;10.30;6.37;;;13.90;87.00;;;;;;5090067;28;20200;-68
2022/09/04 02:22:58;;;;;;;13.57;5.97;;;13.80;87.40;;;;;;5090862;28;20693;-68
2022/09/04 02:25:29;;;;;;;8.67;6.47;;;13.80;87.60;;;;;;5091199;28;20653;-68
2022/09/04 02:28:08;;;;;;;10.33;6.13;;;13.80;87.90;;;;;;5090696;28;20609;-68
2022/09/04 02:30:43;;;;;;;9.50;6.77;;;13.70;88.20;;;;;;5090529;28;20208;-68
2022/09/04 02:33:17;;;;;;;11.60;6.77;;;13.70;88.70;;;;;;5084760;28;20223;-68
2022/09/04 02:35:49;;;;;;;11.03;5.87;;;13.70;88.70;;;;;;5085711;28;20690;-68
2022/09/04 02:38:25;;;;;;;8.23;6.00;;;13.70;89.10;;;;;;5090372;28;20208;-68
2022/09/04 02:40:57;;;;;;;9.83;6.43;;;13.60;89.30;;;;;;5086278;28;20227;-69
2022/09/04 02:43:43;;;;;;;9.30;6.43;;;13.60;89.50;;;;;;5090220;28;20192;-69
2022/09/04 02:46:15;;;;;;;10.37;6.30;;;13.60;89.90;;;;;;5080160;28;20545;-69
2022/09/04 02:48:56;;;;;;;10.83;6.07;;;13.60;90.00;;;;;;5091860;28;20200;-70
2022/09/04 02:51:34;;;;;;;9.97;6.40;;;13.60;90.10;;;;;;5102508;28;20212;-69
2022/09/04 02:54:07;;;;;;;8.90;6.27;;;13.60;90.20;;;;;;5095565;28;20216;-69
2022/09/04 02:56:46;;;;;;;9.30;6.67;;;13.50;90.40;;;;;;5093534;28;20200;-69
2022/09/04 02:59:31;;;;;;;9.27;6.50;;;13.50;90.60;;;;;;5095221;28;20739;-69
2022/09/04 03:02:01;;;;;;;9.90;6.37;;;13.50;90.80;;;;;;5094067;28;20558;-69
2022/09/04 03:04:35;;;;;;;12.03;7.20;;;13.50;90.80;;;;;;5097570;28;20874;-69
2022/09/04 03:07:09;;;;;;;11.00;7.10;;;13.50;91.10;;;;;;5107167;28;20199;-69
2022/09/04 03:09:41;;;;;;;9.93;6.27;;;13.60;91.20;;;;;;5095408;28;20204;-70
2022/09/04 03:12:26;;;;;;;11.43;6.63;;;13.50;91.40;;;;;;5094989;28;20291;-70
2022/09/04 03:15:02;;;;;;;12.87;6.70;;;13.50;91.50;;;;;;5095710;28;20216;-70
2022/09/04 03:17:36;;;;;;;11.37;7.00;;;13.60;91.60;;;;;;5092785;28;20196;-69
2022/09/04 03:20:08;;;;;;;11.57;6.63;;;13.50;91.70;;;;;;5093736;28;20207;-70
2022/09/04 03:22:43;;;;;;;8.33;6.13;;;13.50;91.80;;;;;;5090461;28;20248;-69
2022/09/04 03:25:33;;;;;;;11.67;6.37;;;13.50;91.90;;;;;;5094628;28;20197;-69
2022/09/04 03:28:00;;;;;;;10.97;6.70;;;13.50;92.00;;;;;;5095026;28;20791;-68
2022/09/04 03:30:32;;;;;;;10.87;6.73;;;13.60;92.10;;;;;;5091969;28;20208;-68
2022/09/04 03:33:07;;;;;;;12.87;6.50;;;13.50;92.10;;;;;;5092409;28;20220;-69
2022/09/04 03:35:38;;;;;;;9.90;6.17;;;13.60;92.30;;;;;;5091592;28;20196;-69
2022/09/04 03:38:19;;;;;;;9.27;6.30;;;13.50;92.40;;;;;;5095238;28;20272;-69
2022/09/04 03:40:56;;;;;;;9.30;5.77;;;13.50;92.60;;;;;;5093628;28;20230;-69
2022/09/04 03:43:40;;;;;;;17.80;6.67;;;13.60;92.90;;;;;;5095310;28;20200;-69
2022/09/04 03:46:18;;;;;;;11.63;6.83;;;13.50;93.30;;;;;;5080942;28;20217;-69
2022/09/04 03:49:00;;;;;;;7.97;6.17;;;13.50;93.20;;;;;;5093245;28;20208;-69
2022/09/04 03:51:43;;;;;;;8.70;6.13;;;13.60;93.20;;;;;;5092242;28;20566;-70
2022/09/04 03:54:22;;;;;;;9.37;6.27;;;13.60;93.30;;;;;;5079986;28;20216;-70
2022/09/04 03:57:10;;;;;;;11.40;6.10;;;13.70;93.40;;;;;;5093287;28;20570;-70
2022/09/04 03:59:51;;;;;;;7.53;6.03;;;13.70;93.50;;;;;;5088397;28;20231;-70
2022/09/04 04:02:29;;;;;;;9.23;6.17;;;13.70;93.60;;;;;;5094043;28;20200;-69
2022/09/04 04:05:35;;;;;;;9.20;6.47;;;13.70;93.70;;;;;;5092187;28;20216;-69
2022/09/04 04:08:33;;;;;;;10.77;6.37;;;13.80;93.80;;;;;;5094246;28;20212;-70
2022/09/04 04:11:15;;;;;;;11.07;6.23;;;13.80;93.90;;;;;;5094612;28;20212;-69
2022/09/04 04:14:03;;;;;;;12.10;6.33;;;13.80;93.90;;;;;;5093255;28;20219;-70
2022/09/04 04:16:42;;;;;;;11.47;6.20;;;13.90;93.90;;;;;;5087197;28;20231;-69
2022/09/04 04:19:37;;;;;;;11.80;5.63;;;13.90;94.10;;;;;;5092620;28;20239;-69
2022/09/04 04:22:27;;;;;;;11.10;6.43;;;14.00;94.60;;;;;;5090319;28;20707;-68
2022/09/04 04:25:15;;;;;;;10.87;7.23;;;14.00;94.50;;;;;;5093957;28;20390;-69
2022/09/04 04:27:53;;;;;;;10.93;6.87;;;14.00;94.50;;;;;;5093298;28;20207;-69
2022/09/04 04:30:21;;;;;;;10.57;6.63;;;14.10;94.40;;;;;;5093991;28;20203;-69
2022/09/04 04:33:08;;;;;;;8.60;6.37;;;14.20;94.60;;;;;;5097384;28;20208;-70
2022/09/04 04:35:44;;;;;;;7.77;5.90;;;14.20;94.70;;;;;;5090789;28;20553;-69
2022/09/04 04:38:28;;;;;;;8.80;5.73;;;14.20;94.70;;;;;;5091209;28;20232;-70
2022/09/04 04:41:20;;;;;;;11.37;5.83;;;14.30;94.80;;;;;;5079022;28;20208;-68
2022/09/04 04:44:01;;;;;;;10.33;6.77;;;14.40;94.80;;;;;;5089375;28;20265;-68
2022/09/04 04:46:39;;;;;;;12.13;6.30;;;14.40;94.80;;;;;;5092726;28;20215;-69
2022/09/04 04:49:43;;;;;;;9.20;6.73;;;14.50;95.50;;;;;;5092865;28;20228;-68
2022/09/04 04:52:24;;;;;;;6.63;5.90;;;14.50;96.40;;;;;;5088885;28;20570;-68
2022/09/04 04:55:20;;;;;;;13.80;6.00;;;14.50;97.10;;;;;;5081634;28;20324;-69
2022/09/04 04:58:00;;;;;;;10.13;6.27;;;14.50;97.80;;;;;;5093161;28;20240;-69
2022/09/04 05:00:35;;;;;;;7.13;6.17;;;14.40;98.50;;;;;;5085479;28;20215;-68
2022/09/04 05:03:13;;;;;;;10.03;6.50;;;14.50;99.00;;;;;;5093004;28;20462;-69
2022/09/04 05:05:50;;;;;;;8.47;6.73;;;14.50;99.60;;;;;;5092219;28;20283;-68
2022/09/04 05:08:26;;;;;;;9.97;6.17;;;14.50;99.90;;;;;;5092475;28;20669;-68
2022/09/04 05:10:59;;;;;;;11.20;6.70;;;14.60;99.90;;;;;;5091750;28;20204;-69
2022/09/04 05:13:34;;;;;;;8.53;5.73;;;14.60;99.90;;;;;;5092608;28;20201;-69
2022/09/04 05:16:05;;;;;;;8.83;6.50;;;14.70;99.90;;;;;;5091034;28;20282;-69
2022/09/04 05:18:37;;;;;;;6.87;5.73;;;14.80;99.90;;;;;;5091820;28;20250;-68
2022/09/04 05:21:13;;;;;;;8.30;6.53;;;14.90;99.90;;;;;;5092093;28;20208;-68
2022/09/04 05:23:50;;;;;;;8.20;5.77;;;15.00;99.90;;;;;;5091926;28;20236;-68
2022/09/04 05:26:26;;;;;;;8.27;6.60;;;15.10;99.90;;;;;;5089049;28;20285;-69
2022/09/04 05:29:01;;;;;;;8.37;6.20;;;15.10;99.90;;;;;;5092568;28;20313;-67
2022/09/04 05:31:38;;;;;;;9.23;6.30;;;15.30;99.90;;;;;;5092658;28;20209;-69
2022/09/04 05:34:10;;;;;;;7.07;6.10;;;15.30;99.90;;;;;;5078263;28;20576;-69
2022/09/04 05:36:46;;;;;;;6.87;6.17;;;15.40;99.90;;;;;;5091545;28;20224;-69
2022/09/04 05:39:25;;;;;;;7.70;5.80;;;15.30;99.90;;;;;;5092271;28;20211;-68
2022/09/04 05:42:10;;;;;;;7.87;5.60;;;15.40;99.90;;;;;;5092423;28;20607;-69
2022/09/04 05:44:49;;;;;;;8.97;5.77;;;15.30;99.90;;;;;;5093626;28;20720;-68
2022/09/04 05:47:28;;;;;;;8.10;6.23;;;15.30;99.90;;;;;;5089364;28;20212;-68
2022/09/04 05:50:09;;;;;;;6.37;5.53;;;15.40;99.90;;;;;;5088691;28;20286;-69
2022/09/04 05:53:20;;;;;;;7.77;5.47;;;15.40;99.90;;;;;;5092135;28;20200;-68
2022/09/04 05:56:13;;;;;;;7.03;5.70;;;15.50;99.90;;;;;;5027920;28;20237;-68
2022/09/04 05:59:01;;;;;;;7.43;6.23;;;15.50;99.90;;;;;;5086603;28;20295;-67
2022/09/04 06:01:54;;;;;;;8.47;5.50;;;15.60;99.90;;;;;;5080139;28;20193;-69
2022/09/04 06:04:55;;;;;;;7.07;5.23;;;15.70;99.90;;;;;;5090377;28;20193;-69
2022/09/04 06:07:27;;;;;;;8.40;6.20;;;15.90;99.90;;;;;;5086605;28;20226;-68
2022/09/04 06:10:03;;;;;;;7.78;5.75;;;16.20;99.90;;;;;;5077478;28;20703;-68
2022/09/04 06:13:01;;;;;;;11.10;5.55;;;16.30;99.90;;;;;;5085818;28;20215;-69
2022/09/04 06:15:37;;;;;;;7.70;5.50;;;16.40;99.90;;;;;;5077463;28;20216;-68
2022/09/04 06:18:40;;;;;;;5.68;5.18;;;16.40;99.90;;;;;;5098850;28;20214;-69
2022/09/04 06:21:50;;;;;;;6.18;5.00;;;16.50;99.90;;;;;;5092122;28;20208;-69
2022/09/04 06:24:31;;;;;;;7.80;5.18;;;16.50;99.90;;;;;;5072360;28;20212;-68
2022/09/04 06:27:15;;;;;;;6.75;5.00;;;16.60;99.90;;;;;;5091718;28;20203;-68
2022/09/04 06:30:03;;;;;;;6.03;4.80;;;16.60;99.90;;;;;;5096345;28;20205;-68
2022/09/04 06:32:59;;;;;;;9.57;4.93;;;16.70;99.90;;;;;;5094762;28;20230;-70
2022/09/04 06:35:39;;;;;;;5.80;4.97;;;16.70;99.90;;;;;;5084160;28;20781;-69
2022/09/04 06:38:28;;;;;;;7.53;4.70;;;16.80;99.90;;;;;;5087011;28;20249;-68
2022/09/04 06:41:16;;;;;;;8.07;5.45;;;16.90;99.90;;;;;;5081788;28;20201;-68
2022/09/04 06:43:54;;;;;;;6.50;5.22;;;17.00;99.90;;;;;;5092514;28;20692;-68
2022/09/04 06:46:29;;;;;;;8.10;5.03;;;17.00;99.90;;;;;;5093353;28;20208;-68
2022/09/04 06:49:04;;;;;;;6.60;4.22;;;17.10;99.90;;;;;;5092629;28;20574;-69
2022/09/04 06:51:58;;;;;;;6.43;4.20;;;17.20;99.90;;;;;;5107751;28;20202;-68
2022/09/04 06:54:37;;;;;;;5.38;4.20;;;17.30;99.90;;;;;;5105080;28;20220;-70
2022/09/04 06:57:27;;;;;;;6.25;4.32;;;17.40;99.90;;;;;;5105348;28;20223;-71
2022/09/04 07:00:07;;;;;;;6.05;4.05;;;17.50;99.90;;;;;;5082513;28;20250;-67
2022/09/04 07:03:00;;;;;;;6.00;3.75;;;17.60;99.90;;;;;;5088769;28;20281;-68
2022/09/04 07:05:32;;;;;;;5.05;4.20;;;17.70;99.90;;;;;;5084884;28;20199;-68
2022/09/04 07:08:08;;;;;;;4.57;3.92;;;17.80;99.90;;;;;;5092076;28;20606;-69
2022/09/04 07:10:40;;;;;;;6.40;4.57;;;17.90;99.90;;;;;;5093485;28;20270;-68
2022/09/04 07:13:35;;;;;;;5.40;4.00;;;18.00;99.90;;;;;;5091076;28;20322;-71
2022/09/04 07:16:12;;;;;;;6.20;4.45;;;18.10;99.90;;;;;;5091512;28;20564;-67
2022/09/04 07:19:10;;;;;;;5.28;3.75;;;18.20;99.90;;;;;;5094247;28;20208;-69
2022/09/04 07:21:50;;;;;;;8.38;3.42;;;18.40;99.80;;;;;;5094079;28;20197;-68
2022/09/04 07:24:44;;;;;;;4.93;3.80;;;18.40;99.50;;;;;;5111119;28;20227;-68
2022/09/04 07:27:17;;;;;;;4.57;3.63;;;18.50;99.40;;;;;;5098367;28;20200;-69
2022/09/04 07:29:50;;;;;;;5.00;3.42;;;18.70;99.00;;;;;;5107960;28;20660;-68
2022/09/04 07:32:22;;;;;;;3.95;3.35;;;18.70;98.90;;;;;;5101221;28;20231;-68
2022/09/04 07:34:59;;;;;;;5.55;2.90;;;18.90;98.50;;;;;;5096404;28;20223;-67
2022/09/04 07:37:38;;;;;;;4.65;3.20;;;19.00;97.90;;;;;;5106272;28;20232;-67
2022/09/04 07:40:10;;;;;;;3.75;2.95;;;19.10;97.60;;;;;;5088808;28;20242;-68
2022/09/04 07:42:45;;;;;;;3.78;3.20;;;19.30;97.40;;;;;;5087121;28;20205;-67
2022/09/04 07:45:21;;;;;;;5.30;3.45;;;19.30;97.30;;;;;;5095080;28;20219;-67
2022/09/04 07:47:57;;;;;;;3.63;2.92;;;19.50;96.90;;;;;;5086274;28;20197;-68
2022/09/04 07:50:34;;;;;;;3.90;3.35;;;19.60;96.70;;;;;;5095708;28;20199;-68
2022/09/04 07:53:13;;;;;;;6.55;3.00;;;19.60;96.70;;;;;;5092850;28;20215;-69
2022/09/04 07:55:42;;;;;;;4.10;3.17;;;19.70;96.90;;;;;;5093994;28;20665;-69
2022/09/04 07:58:37;;;;;;;4.93;3.15;;;19.80;97.40;;;;;;5103105;28;20303;-66
2022/09/04 08:01:22;;;;;;;5.30;3.90;;;20.00;96.80;;;;;;5085681;28;20672;-68
2022/09/04 08:04:07;;;;;;;4.15;3.30;;;20.00;96.30;;;;;;5089617;28;20242;-69
2022/09/04 08:06:42;;;;;;;4.57;3.90;;;20.10;95.80;;;;;;5081607;28;20199;-66
2022/09/04 08:09:31;;;;;;;5.35;3.53;;;20.20;95.90;;;;;;5092762;28;20606;-66
2022/09/04 08:12:29;;;;;;;4.20;3.60;;;20.30;95.90;;;;;;5090729;28;20205;-70
2022/09/04 08:15:04;;;;;;;3.53;3.22;;;20.50;95.60;;;;;;5088605;28;20651;-66
2022/09/04 08:18:04;;;;;;;3.70;3.30;;;20.60;95.00;;;;;;5094061;28;20307;-69
2022/09/04 08:20:43;;;;;;;4.82;3.83;;;20.60;94.40;;;;;;5077320;28;20561;-70
2022/09/04 08:23:26;;;;;;;4.03;3.50;;;20.70;94.00;;;;;;5085773;28;20286;-68
2022/09/04 08:26:10;;;;;;;5.47;3.30;;;20.80;93.70;;;;;;5091998;28;20205;-68
2022/09/04 08:28:56;;;;;;;4.30;3.67;;;20.90;93.70;;;;;;5091344;28;20200;-72
2022/09/04 08:31:30;;;;;;;4.20;3.47;;;21.00;93.40;;;;;;5082480;28;20230;-67
2022/09/04 08:34:12;;;;;;;4.85;3.78;;;21.20;93.00;;;;;;5091014;28;20201;-68
2022/09/04 08:36:51;;;;;;;4.53;3.50;;;21.30;93.00;;;;;;5090623;28;20239;-68
2022/09/04 08:39:29;;;;;;;4.80;3.22;;;21.40;93.10;;;;;;5079079;28;20223;-70
2022/09/04 08:42:26;;;;;;;3.63;3.20;;;21.70;92.70;;;;;;5090020;28;20219;-71
2022/09/04 08:45:33;;;;;;;5.85;3.70;;;21.90;91.60;;;;;;5102045;28;20204;-70
2022/09/04 08:48:42;;;;;;;4.38;3.10;;;22.10;90.70;;;;;;5082906;28;20226;-69
2022/09/04 08:51:28;;;;;;;4.70;3.53;;;22.30;89.60;;;;;;5085701;28;20271;-71
2022/09/04 08:54:30;;;;;;;4.85;3.53;;;22.40;88.80;;;;;;5109207;28;20204;-71
2022/09/04 08:57:25;;;;;;;6.07;3.20;;;22.40;87.90;;;;;;5090037;28;20283;-70
2022/09/04 09:00:09;;;;;;;4.45;3.10;;;22.40;87.30;;;;;;5098059;28;20531;-70
2022/09/04 09:03:11;;;;;;;5.22;3.55;;;22.70;87.00;;;;;;5098640;28;20208;-70
2022/09/04 09:06:05;;;;;;;9.90;4.18;;;22.90;86.20;;;;;;5095690;28;20208;-70
2022/09/04 09:09:17;;;;;;;6.88;4.30;;;23.20;86.50;;;;;;5088683;28;20201;-69
2022/09/04 09:12:28;;;;;;;5.53;4.03;;;23.50;84.30;;;;;;5068210;28;20215;-70
2022/09/04 09:15:30;;;;;;;7.35;4.15;;;23.80;82.30;;;;;;5096499;28;20200;-67
2022/09/04 09:18:11;;;;;;;8.50;3.72;;;24.40;81.80;;;;;;5103272;28;20204;-67
2022/09/04 09:20:50;;;;;;;4.93;3.47;;;24.80;79.30;;;;;;5097897;28;20200;-69
2022/09/04 09:23:20;;;;;;;10.00;3.50;;;25.10;76.40;;;;;;5094738;28;20224;-67
2022/09/04 09:25:51;;;;;;;3.70;3.22;;;25.30;74.30;;;;;;5095552;28;20208;-68
2022/09/04 09:29:18;;;;;;;3.13;2.83;;;25.50;74.30;;;;;;5097652;28;20200;-69
2022/09/04 09:32:30;;;;;;;4.32;3.30;;;25.70;73.00;;;;;;5072683;28;20205;-67
2022/09/04 09:35:30;;;;;;;3.65;2.88;;;25.90;69.20;;;;;;5095770;28;20204;-67
2022/09/04 09:38:35;;;;;;;3.63;3.10;;;25.80;65.30;;;;;;5079238;28;20204;-68
2022/09/04 09:41:45;;;;;;;3.42;2.97;;;25.70;64.50;;;;;;5087069;28;20688;-69
2022/09/04 09:44:38;;;;;;;3.88;2.53;;;25.90;64.40;;;;;;5082965;28;20243;-67
2022/09/04 09:47:22;;;;;;;3.67;2.70;;;26.40;64.20;;;;;;5086926;28;20212;-65
2022/09/04 09:50:14;;;;;;;4.43;3.60;;;26.90;62.60;;;;;;5088754;28;20200;-65
2022/09/04 09:53:13;;;;;;;4.80;3.50;;;27.00;58.70;;;;;;5089644;28;20644;-68
2022/09/04 09:56:05;;;;;;;5.35;3.70;;;27.10;58.60;;;;;;5090186;28;20251;-68
2022/09/04 09:59:11;;;;;;;4.28;3.67;;;27.30;57.20;;;;;;5092569;28;20290;-68
2022/09/04 10:02:07;;;;;;;5.70;3.53;;;27.30;56.40;;;;;;5080885;28;20200;-67
2022/09/04 10:05:18;;;;;;;4.18;3.05;;;27.30;57.40;;;;;;5096914;28;20219;-68
2022/09/04 10:08:11;;;;;;;4.25;3.45;;;28.00;57.00;;;;;;5090145;28;20208;-68
2022/09/04 10:11:17;;;;;;;4.10;3.70;;;28.50;55.20;;;;;;5085370;28;20196;-66
2022/09/04 10:14:28;;;;;;;4.22;3.22;;;28.90;54.50;;;;;;5081267;28;20212;-68
2022/09/04 10:17:15;;;;;;;5.88;3.60;;;29.10;53.40;;;;;;5085926;28;20234;-65
2022/09/04 10:20:21;;;;;;;3.88;3.22;;;29.00;51.80;;;;;;5087824;28;20196;-65
2022/09/04 10:23:24;;;;;;;3.78;3.45;;;28.70;52.30;;;;;;5090219;28;20285;-66
2022/09/04 10:26:17;;;;;;;6.50;3.25;;;28.90;52.50;;;;;;5038474;28;20369;-65
2022/09/04 10:29:20;;;;;;;5.93;4.15;;;29.10;51.00;;;;;;5081837;28;20219;-69
2022/09/04 10:32:06;;;;;;;7.10;3.80;;;29.00;50.80;;;;;;5088596;28;20196;-70
2022/09/04 10:34:54;;;;;;;6.00;4.25;;;29.30;49.30;;;;;;5089849;28;20204;-68
2022/09/04 10:37:41;;;;;;;4.82;3.83;;;29.60;48.70;;;;;;5095941;28;20639;-66
2022/09/04 10:40:34;;;;;;;5.28;3.97;;;29.50;48.10;;;;;;5090387;28;20192;-66
2022/09/04 10:43:28;;;;;;;6.47;4.32;;;29.30;45.90;;;;;;5092292;28;20205;-65
2022/09/04 10:46:02;;;;;;;6.57;4.13;;;29.10;47.60;;;;;;5089910;28;20203;-67
2022/09/04 10:49:01;;;;;;;9.20;4.15;;;29.60;46.80;;;;;;5083762;28;20611;-68
2022/09/04 10:51:59;;;;;;;5.57;4.10;;;29.50;46.40;;;;;;5093291;28;20203;-64
2022/09/04 10:55:01;;;;;;;4.05;3.65;;;29.10;46.80;;;;;;5070320;28;20649;-67
2022/09/04 10:57:44;;;;;;;6.00;4.45;;;28.90;46.10;;;;;;5090493;28;20219;-66
2022/09/04 11:00:15;;;;;;;7.57;4.05;;;28.80;46.70;;;;;;5087691;28;20515;-67
2022/09/04 11:03:14;;;;;;;6.68;4.53;;;28.60;46.30;;;;;;5088875;28;20232;-66
2022/09/04 11:06:09;;;;;;;5.88;4.13;;;28.50;47.80;;;;;;5084022;28;20201;-65
2022/09/04 11:09:00;;;;;;;6.68;3.83;;;28.50;48.80;;;;;;5089140;28;20250;-65
2022/09/04 11:11:51;;;;;;;4.43;3.80;;;28.80;48.10;;;;;;5095275;28;20204;-66
2022/09/04 11:14:57;;;;;;;6.22;3.80;;;28.90;46.30;;;;;;5091269;28;20657;-64
2022/09/04 11:17:50;;;;;;;8.10;4.20;;;29.10;46.00;;;;;;5088379;28;20746;-65
2022/09/04 11:20:56;;;;;;;5.00;4.07;;;29.70;45.90;;;;;;5101001;28;20199;-66
2022/09/04 11:24:14;;;;;;;4.47;3.40;;;30.20;44.40;;;;;;5058715;28;20592;-70
2022/09/04 11:27:20;;;;;;;4.95;4.03;;;30.50;43.50;;;;;;5095291;28;20203;-70
2022/09/04 11:30:02;;;;;;;5.32;3.70;;;30.40;43.40;;;;;;5097119;28;20204;-71
2022/09/04 11:32:54;;;;;;;3.50;3.10;;;30.30;44.10;;;;;;5092916;28;20292;-69
2022/09/04 11:36:08;;;;;;;3.83;3.25;;;30.40;43.20;;;;;;5092399;28;20200;-66
2022/09/04 11:39:10;;;;;;;4.28;3.17;;;30.60;42.80;;;;;;5084891;28;20209;-66
2022/09/04 11:42:19;;;;;;;4.53;3.42;;;30.50;41.90;;;;;;5088513;28;20595;-67
2022/09/04 11:45:28;;;;;;;5.65;3.80;;;30.70;42.20;;;;;;5075738;28;20287;-67
2022/09/04 11:48:15;;;;;;;6.68;3.38;;;30.50;41.80;;;;;;5039097;28;20212;-67
2022/09/04 11:51:00;;;;;;;4.53;3.40;;;30.30;42.60;;;;;;5095316;28;20219;-67
2022/09/04 11:53:45;;;;;;;4.75;3.83;;;30.10;45.60;;;;;;5082767;28;20197;-66
2022/09/04 11:56:27;;;;;;;5.70;4.22;;;29.50;47.60;;;;;;5089545;28;20216;-66
2022/09/04 11:59:19;;;;;;;7.13;3.70;;;28.90;49.40;;;;;;5098983;28;20200;-66
2022/09/04 12:02:06;;;;;;;5.00;3.50;;;28.30;51.30;;;;;;5091197;28;20216;-66
2022/09/04 12:05:05;;;;;;;7.07;3.55;;;28.10;50.50;;;;;;5099525;28;20231;-65
2022/09/04 12:07:48;;;;;;;4.28;3.30;;;27.70;50.40;;;;;;5094931;28;20675;-66
2022/09/04 12:10:34;;;;;;;3.83;3.10;;;27.50;51.30;;;;;;5088827;28;20212;-66
2022/09/04 12:13:28;;;;;;;4.18;3.30;;;27.00;52.40;;;;;;5093077;28;20676;-65
2022/09/04 12:16:37;;;;;;;5.18;3.83;;;26.70;53.30;;;;;;5086389;28;20264;-66
2022/09/04 12:19:41;;;;;;;5.45;3.72;;;26.40;53.60;;;;;;5095830;28;20240;-66
2022/09/04 12:22:42;;;;;;;6.88;3.85;;;26.10;53.70;;;;;;5093850;28;20262;-67
2022/09/04 12:25:22;;;;;;;5.65;3.30;;;25.80;53.80;;;;;;5087693;28;21299;-67
2022/09/04 12:28:22;;;;;;;5.20;3.80;;;25.60;54.00;;;;;;5084780;28;20258;-66
2022/09/04 12:31:06;;;;;;;5.55;3.80;;;25.40;54.60;;;;;;5094457;28;20204;-66
2022/09/04 12:33:51;;;;;;;5.15;3.65;;;25.50;55.30;;;;;;5092954;28;20215;-65
2022/09/04 12:36:49;;;;;;;4.53;3.05;;;26.10;54.40;;;;;;5088542;28;20264;-66
2022/09/04 12:39:36;;;;;;;3.38;2.92;;;26.70;53.30;;;;;;5098565;28;20204;-66
2022/09/04 12:42:08;;;;;;;4.00;3.60;;;27.30;52.20;;;;;;5084589;28;20202;-65
2022/09/04 12:44:47;;;;;;;6.93;3.35;;;27.50;51.20;;;;;;5086653;28;20212;-67
2022/09/04 12:47:27;;;;;;;4.38;3.35;;;27.50;50.50;;;;;;5096500;28;20196;-68
2022/09/04 12:50:18;;;;;;;5.47;3.75;;;27.30;50.80;;;;;;5090871;28;20212;-66
2022/09/04 12:53:09;;;;;;;4.25;3.47;;;26.80;51.10;;;;;;5084592;28;20204;-67
2022/09/04 12:55:45;;;;;;;4.85;2.80;;;26.40;51.80;;;;;;5091698;28;20211;-67
2022/09/04 12:58:25;;;;;;;7.03;3.80;;;25.90;52.40;;;;;;5090201;28;20204;-67
2022/09/04 13:01:09;;;;;;;4.53;3.47;;;25.60;53.00;;;;;;5087944;28;20688;-67
2022/09/04 13:03:47;;;;;;;4.65;3.83;;;25.30;52.80;;;;;;5090316;28;20228;-66
2022/09/04 13:06:26;;;;;;;4.00;3.50;;;24.90;52.90;;;;;;5088011;28;20211;-69
2022/09/04 13:09:04;;;;;;;6.10;3.65;;;24.60;53.00;;;;;;5092846;28;20208;-67
2022/09/04 13:11:44;;;;;;;3.53;3.22;;;24.30;53.60;;;;;;5089614;28;20200;-69
2022/09/04 13:14:42;;;;;;;5.68;3.28;;;24.20;53.80;;;;;;5082141;28;20205;-68
2022/09/04 13:17:20;;;;;;;4.70;3.65;;;24.10;53.70;;;;;;5086547;28;20646;-68
2022/09/04 13:19:54;;;;;;;4.20;3.10;;;24.20;53.80;;;;;;5089697;28;20500;-67
2022/09/04 13:22:32;;;;;;;5.28;3.20;;;24.30;54.10;;;;;;5083238;28;20726;-67
2022/09/04 13:25:08;;;;;;;5.05;2.92;;;24.20;53.90;;;;;;5088149;28;20211;-68
2022/09/04 13:27:56;;;;;;;4.53;3.10;;;24.20;54.50;;;;;;5099937;28;20195;-68
2022/09/04 13:30:24;;;;;;;3.95;3.08;;;24.30;54.60;;;;;;5103799;28;20681;-70
2022/09/04 13:33:11;;;;;;;5.65;3.45;;;24.40;54.30;;;;;;5108199;28;20215;-67
2022/09/04 13:35:52;;;;;;;6.97;3.08;;;24.50;53.80;;;;;;5100371;28;20399;-69
2022/09/04 13:38:44;;;;;;;8.05;4.10;;;24.70;53.70;;;;;;5088238;28;20265;-69
2022/09/04 13:41:40;;;;;;;5.45;3.60;;;25.10;53.40;;;;;;5099034;28;20200;-71
2022/09/04 13:44:39;;;;;;;8.23;3.05;;;25.40;53.00;;;;;;5088600;28;20587;-67
2022/09/04 13:47:09;;;;;;;7.13;3.25;;;25.50;52.70;;;;;;5100697;28;20619;-70
2022/09/04 13:49:40;;;;;;;7.82;3.78;;;25.50;53.10;;;;;;5089522;28;20207;-70
2022/09/04 13:52:12;;;;;;;3.45;3.15;;;25.50;52.30;;;;;;5088078;28;20216;-70
2022/09/04 13:54:46;;;;;;;3.53;2.97;;;25.40;52.50;;;;;;5096925;28;20219;-70
2022/09/04 13:57:19;;;;;;;3.75;3.30;;;25.40;52.40;;;;;;5089668;28;20240;-70
2022/09/04 13:59:48;;;;;;;8.77;3.88;;;25.60;52.30;;;;;;5089565;28;20669;-68
2022/09/04 14:02:24;;;;;;;5.95;3.25;;;25.90;51.90;;;;;;5086295;28;20661;-68
2022/09/04 14:04:54;;;;;;;4.15;3.15;;;26.30;50.70;;;;;;5091106;28;20747;-69
2022/09/04 14:07:28;;;;;;;4.20;2.88;;;26.50;50.80;;;;;;5095528;28;20231;-68
2022/09/04 14:10:02;;;;;;;4.68;3.33;;;26.60;50.10;;;;;;5087855;28;20213;-69
2022/09/04 14:12:42;;;;;;;4.28;2.72;;;26.70;48.80;;;;;;5097867;28;20583;-69